Time;durP1;ratioP1;P1;durP2;ratioP2;P2;SDS_P1;SDS_P2;PMS_P1;PMS_P2;Temp;Humidity;BMP_temperature;BMP_pressure;BME280_temperature;BME280_humidity;BME280_pressure;Samples;Min_cycle;Max_cycle;Signal;HPM_P1;HPM_P2
2021/10/31 00:00:14;;;;;;;7.53;3.83;;;6.90;99.90;;;;;;4987139;28;20076;-94
2021/10/31 00:02:40;;;;;;;5.20;2.90;;;6.90;99.90;;;;;;4985551;28;20019;-93
2021/10/31 00:05:07;;;;;;;12.50;4.07;;;6.90;99.90;;;;;;4988573;28;20054;-93
2021/10/31 00:07:33;;;;;;;11.77;5.57;;;6.90;99.90;;;;;;4990543;28;20027;-95
2021/10/31 00:09:58;;;;;;;9.00;3.60;;;6.90;99.90;;;;;;4992818;28;20131;-93
2021/10/31 00:12:24;;;;;;;8.05;3.17;;;6.90;99.90;;;;;;4989980;28;20511;-94
2021/10/31 00:14:50;;;;;;;10.13;4.43;;;6.80;99.90;;;;;;4992295;28;20039;-94
2021/10/31 00:17:16;;;;;;;10.82;4.30;;;6.80;99.90;;;;;;4987341;28;20038;-93
2021/10/31 00:19:41;;;;;;;11.63;3.97;;;6.80;99.90;;;;;;4992073;28;20043;-93
2021/10/31 00:22:07;;;;;;;8.38;3.83;;;6.80;99.90;;;;;;4997579;28;20027;-93
2021/10/31 00:24:36;;;;;;;10.35;4.57;;;6.70;99.90;;;;;;4997659;28;20046;-94
2021/10/31 00:27:01;;;;;;;12.10;4.70;;;6.70;99.90;;;;;;4999478;28;20015;-92
2021/10/31 00:29:27;;;;;;;14.43;5.03;;;6.70;99.90;;;;;;4999535;28;20035;-94
2021/10/31 00:31:53;;;;;;;12.27;6.13;;;6.70;99.90;;;;;;4998063;28;20045;-92
2021/10/31 00:34:18;;;;;;;17.90;6.75;;;6.70;99.90;;;;;;4996985;28;20046;-93
2021/10/31 00:36:44;;;;;;;15.50;6.28;;;6.80;99.90;;;;;;4993902;28;20046;-93
2021/10/31 00:39:10;;;;;;;12.18;6.63;;;6.80;99.90;;;;;;4998419;28;20019;-93
2021/10/31 00:41:36;;;;;;;13.52;6.18;;;6.80;99.90;;;;;;4996403;28;20046;-93
2021/10/31 00:44:02;;;;;;;14.25;6.47;;;6.80;99.90;;;;;;4999373;28;20063;-93
2021/10/31 00:46:28;;;;;;;18.15;6.97;;;6.70;99.90;;;;;;4996936;28;20046;-93
2021/10/31 00:48:54;;;;;;;14.80;6.78;;;6.70;99.90;;;;;;4994914;28;20027;-94
2021/10/31 00:51:20;;;;;;;15.57;6.82;;;6.70;99.90;;;;;;4993300;28;20023;-94
2021/10/31 00:53:46;;;;;;;11.07;5.72;;;6.70;99.90;;;;;;4995861;28;20062;-93
2021/10/31 00:56:12;;;;;;;15.55;7.40;;;6.70;99.90;;;;;;4997083;28;20023;-94
2021/10/31 00:58:37;;;;;;;12.75;6.85;;;6.60;99.90;;;;;;4996729;28;20065;-93
2021/10/31 01:01:04;;;;;;;17.10;8.25;;;6.60;99.90;;;;;;4996893;28;20118;-93
2021/10/31 01:03:30;;;;;;;15.88;7.80;;;6.60;99.90;;;;;;4997412;28;20015;-91
2021/10/31 01:06:24;;;;;;;21.23;9.48;;;6.50;99.90;;;;;;4996543;28;20038;-95
2021/10/31 01:09:11;;;;;;;15.20;8.45;;;6.50;99.90;;;;;;4991199;28;20011;-95
2021/10/31 01:12:12;;;;;;;15.07;8.18;;;6.40;99.90;;;;;;4976777;28;20038;-96
2021/10/31 01:15:03;;;;;;;13.32;7.85;;;6.30;99.90;;;;;;4894092;29;20029;-95
2021/10/31 01:18:12;;;;;;;15.77;6.93;;;6.30;99.90;;;;;;4898844;29;20072;-94
2021/10/31 01:21:09;;;;;;;12.55;6.53;;;6.30;99.90;;;;;;4914723;29;20052;-96
2021/10/31 01:24:01;;;;;;;13.85;7.53;;;6.30;99.90;;;;;;4899767;29;20549;-95
2021/10/31 01:27:08;;;;;;;16.85;7.68;;;6.30;99.90;;;;;;4904554;29;20044;-95
2021/10/31 01:29:55;;;;;;;12.32;6.95;;;6.40;99.90;;;;;;4864611;29;20093;-94
2021/10/31 01:32:23;;;;;;;18.10;8.88;;;6.40;99.90;;;;;;4850641;29;20029;-91
2021/10/31 01:35:12;;;;;;;17.10;8.43;;;6.40;99.90;;;;;;4861440;29;20026;-92
2021/10/31 01:37:56;;;;;;;17.55;8.48;;;6.40;99.90;;;;;;4853188;29;20045;-95
2021/10/31 01:40:31;;;;;;;20.50;9.43;;;6.50;99.90;;;;;;4842940;29;20049;-93
2021/10/31 01:43:24;;;;;;;20.60;9.07;;;6.50;99.90;;;;;;4854665;29;20053;-94
2021/10/31 01:46:02;;;;;;;18.42;8.68;;;6.50;99.90;;;;;;4820275;29;20042;-95
2021/10/31 01:48:41;;;;;;;23.73;9.55;;;6.60;99.90;;;;;;4846643;29;20075;-93
2021/10/31 01:51:16;;;;;;;19.15;9.30;;;6.60;99.90;;;;;;4873831;29;20068;-93
2021/10/31 01:53:56;;;;;;;20.42;9.55;;;6.60;99.90;;;;;;4931025;29;20043;-93
2021/10/31 01:56:23;;;;;;;20.50;8.85;;;6.60;99.90;;;;;;4914764;29;20036;-94
2021/10/31 01:59:02;;;;;;;20.08;9.43;;;6.50;99.90;;;;;;4911454;29;20048;-95
2021/10/31 02:01:31;;;;;;;19.58;9.02;;;6.60;99.90;;;;;;4910252;29;20532;-93
2021/10/31 02:04:02;;;;;;;20.25;9.27;;;6.60;99.90;;;;;;4905226;29;20031;-94
2021/10/31 02:06:30;;;;;;;18.08;9.73;;;6.50;99.90;;;;;;4959624;28;20070;-95
2021/10/31 02:08:57;;;;;;;19.42;10.05;;;6.50;99.90;;;;;;4986537;28;20046;-94
2021/10/31 02:11:23;;;;;;;21.88;9.35;;;6.50;99.90;;;;;;4984986;28;20031;-95
2021/10/31 02:13:52;;;;;;;18.98;8.15;;;6.50;99.90;;;;;;4985535;28;20058;-95
2021/10/31 02:16:19;;;;;;;21.42;8.57;;;6.50;99.90;;;;;;4981609;28;20031;-94
2021/10/31 02:18:46;;;;;;;16.33;8.27;;;6.50;99.90;;;;;;4979124;28;20046;-95
2021/10/31 02:21:19;;;;;;;17.77;7.45;;;6.50;99.90;;;;;;4976641;28;20503;-95
2021/10/31 02:23:45;;;;;;;17.60;8.73;;;6.50;99.90;;;;;;4979017;28;20049;-94
2021/10/31 02:26:13;;;;;;;16.42;7.05;;;6.50;99.90;;;;;;4981974;28;20038;-96
2021/10/31 02:28:39;;;;;;;18.75;8.35;;;6.50;99.90;;;;;;4984976;28;20033;-95
2021/10/31 02:31:06;;;;;;;24.02;8.20;;;6.50;99.90;;;;;;4982995;28;20030;-94
2021/10/31 02:33:32;;;;;;;17.08;8.10;;;6.50;99.90;;;;;;4983869;28;20026;-94
2021/10/31 02:35:58;;;;;;;15.75;9.80;;;6.50;99.90;;;;;;4983964;28;20034;-95
2021/10/31 02:38:24;;;;;;;17.98;8.07;;;6.40;99.90;;;;;;4986526;28;20070;-94
2021/10/31 02:40:50;;;;;;;14.27;7.88;;;6.40;99.90;;;;;;4983939;28;20058;-93
2021/10/31 02:43:16;;;;;;;15.32;7.70;;;6.40;99.90;;;;;;4983685;28;20050;-94
2021/10/31 02:45:42;;;;;;;16.10;8.02;;;6.40;99.90;;;;;;4978960;28;20126;-94
2021/10/31 02:48:13;;;;;;;16.27;7.88;;;6.40;99.90;;;;;;4982840;28;20030;-95
2021/10/31 02:50:41;;;;;;;13.02;6.65;;;6.40;99.90;;;;;;4982963;28;20442;-94
2021/10/31 02:53:10;;;;;;;15.55;7.15;;;6.40;99.90;;;;;;4981914;28;20058;-95
2021/10/31 02:55:56;;;;;;;17.95;8.07;;;6.40;99.90;;;;;;4981522;28;20066;-92
2021/10/31 02:58:46;;;;;;;19.90;7.75;;;6.40;99.90;;;;;;4983011;28;20062;-95
2021/10/31 03:01:13;;;;;;;12.05;5.13;;;6.40;99.90;;;;;;4985641;28;20043;-93
2021/10/31 03:03:40;;;;;;;12.50;6.82;;;6.40;99.90;;;;;;4978339;28;20027;-95
2021/10/31 03:06:08;;;;;;;13.80;5.40;;;6.30;99.90;;;;;;4982907;28;20030;-95
2021/10/31 03:08:34;;;;;;;14.70;5.53;;;6.30;99.90;;;;;;4982705;28;20105;-95
2021/10/31 03:11:03;;;;;;;14.68;5.45;;;6.40;99.90;;;;;;4982807;28;20027;-95
2021/10/31 03:13:29;;;;;;;7.88;4.40;;;6.40;99.90;;;;;;4981392;28;20118;-95
2021/10/31 03:15:55;;;;;;;12.05;4.90;;;6.40;99.90;;;;;;4978688;28;20027;-95
2021/10/31 03:18:22;;;;;;;7.38;4.05;;;6.40;99.90;;;;;;4979847;28;20556;-95
2021/10/31 03:20:48;;;;;;;10.65;4.60;;;6.40;99.90;;;;;;4979146;28;20078;-94
2021/10/31 03:23:14;;;;;;;13.23;4.40;;;6.40;99.90;;;;;;4976860;28;20023;-96
2021/10/31 03:25:40;;;;;;;13.57;4.45;;;6.40;99.90;;;;;;4978435;28;20030;-94
2021/10/31 03:28:05;;;;;;;10.63;5.65;;;6.40;99.90;;;;;;4978407;28;20038;-95
2021/10/31 03:30:32;;;;;;;12.68;3.25;;;6.40;99.90;;;;;;4977805;28;20485;-96
2021/10/31 03:32:58;;;;;;;10.85;3.15;;;6.40;99.90;;;;;;4979670;28;20030;-94
2021/10/31 03:35:24;;;;;;;6.75;2.83;;;6.40;99.90;;;;;;4983633;28;20121;-95
2021/10/31 03:37:50;;;;;;;7.70;2.92;;;6.40;99.90;;;;;;4983401;28;20037;-96
2021/10/31 03:40:17;;;;;;;10.48;2.80;;;6.40;99.90;;;;;;4981560;28;20106;-95
2021/10/31 03:42:42;;;;;;;8.45;2.20;;;6.40;99.90;;;;;;4983436;28;20027;-94
2021/10/31 03:45:10;;;;;;;11.65;2.00;;;6.40;99.90;;;;;;4982402;28;20445;-95
2021/10/31 03:47:40;;;;;;;7.22;1.98;;;6.40;99.90;;;;;;4986755;28;20054;-96
2021/10/31 03:50:06;;;;;;;7.28;2.95;;;6.50;99.90;;;;;;4980983;28;20031;-94
2021/10/31 03:52:32;;;;;;;4.47;1.77;;;6.50;99.90;;;;;;4979113;28;20030;-95
2021/10/31 03:54:58;;;;;;;4.93;1.55;;;6.60;99.90;;;;;;4983049;28;20051;-94
2021/10/31 03:57:24;;;;;;;6.05;2.08;;;6.60;99.90;;;;;;4980605;28;20027;-95
2021/10/31 03:59:49;;;;;;;14.38;1.98;;;6.60;99.90;;;;;;4980730;28;20034;-95
2021/10/31 04:02:15;;;;;;;10.32;1.90;;;6.60;99.90;;;;;;4985134;28;20031;-95
2021/10/31 04:04:41;;;;;;;12.00;1.88;;;6.60;99.90;;;;;;4991803;28;20031;-95
2021/10/31 04:07:06;;;;;;;12.27;2.70;;;6.60;99.90;;;;;;4991010;28;20101;-95
2021/10/31 04:09:32;;;;;;;14.63;1.80;;;6.60;99.90;;;;;;4987005;28;20023;-95
2021/10/31 04:11:58;;;;;;;5.70;1.42;;;6.60;99.90;;;;;;4983675;28;20058;-93
2021/10/31 04:14:24;;;;;;;6.38;1.70;;;6.60;99.90;;;;;;4981795;28;20062;-93
2021/10/31 04:16:49;;;;;;;5.68;1.83;;;6.70;99.90;;;;;;4979055;28;20090;-94
2021/10/31 04:19:15;;;;;;;13.02;1.67;;;6.70;99.90;;;;;;4978231;28;20063;-94
2021/10/31 04:21:41;;;;;;;7.75;2.22;;;6.70;99.90;;;;;;4978319;28;20038;-94
2021/10/31 04:24:06;;;;;;;7.80;1.70;;;6.70;99.90;;;;;;4977245;28;20018;-94
2021/10/31 04:26:32;;;;;;;9.57;2.20;;;6.70;99.90;;;;;;4976829;28;20544;-95
2021/10/31 04:28:58;;;;;;;11.13;1.98;;;6.70;99.90;;;;;;4976754;28;20476;-96
2021/10/31 04:31:23;;;;;;;4.90;1.75;;;6.70;99.90;;;;;;4975886;28;20034;-94
2021/10/31 04:33:49;;;;;;;5.88;1.80;;;6.70;99.90;;;;;;4976421;28;20042;-94
2021/10/31 04:36:18;;;;;;;7.13;1.70;;;6.70;99.90;;;;;;4977091;28;20543;-94
2021/10/31 04:38:45;;;;;;;9.57;1.80;;;6.80;99.90;;;;;;4976139;28;20113;-94
2021/10/31 04:41:11;;;;;;;8.00;1.40;;;6.80;99.90;;;;;;4976814;28;20030;-94
2021/10/31 04:43:39;;;;;;;6.18;1.48;;;6.90;99.90;;;;;;4976156;28;20105;-93
2021/10/31 04:46:05;;;;;;;8.80;1.55;;;6.90;99.90;;;;;;4976555;28;20030;-93
2021/10/31 04:48:31;;;;;;;10.48;2.72;;;7.00;99.90;;;;;;4976232;28;20490;-95
2021/10/31 04:50:56;;;;;;;2.97;1.23;;;7.00;99.90;;;;;;4975454;28;20121;-94
2021/10/31 04:53:22;;;;;;;18.35;4.22;;;7.10;99.90;;;;;;4977092;28;20488;-93
2021/10/31 04:55:48;;;;;;;7.85;2.28;;;7.20;99.90;;;;;;4973943;28;20146;-94
2021/10/31 04:58:14;;;;;;;11.07;1.92;;;7.20;99.90;;;;;;4976525;28;20031;-93
2021/10/31 05:00:39;;;;;;;11.45;2.63;;;7.30;99.90;;;;;;4976079;28;20097;-93
2021/10/31 05:03:05;;;;;;;9.88;2.40;;;7.30;99.90;;;;;;4975291;28;20026;-94
2021/10/31 05:05:32;;;;;;;8.65;1.83;;;7.40;99.90;;;;;;4976609;28;20031;-93
2021/10/31 05:07:58;;;;;;;9.88;1.75;;;7.40;99.90;;;;;;4976008;28;20038;-95
2021/10/31 05:10:25;;;;;;;6.53;1.50;;;7.50;99.90;;;;;;4975419;28;20023;-93
2021/10/31 05:12:51;;;;;;;6.85;1.67;;;7.50;99.90;;;;;;4975062;28;20030;-94
2021/10/31 05:15:17;;;;;;;9.23;2.80;;;7.50;99.90;;;;;;4975363;28;20027;-94
2021/10/31 05:17:43;;;;;;;14.18;3.75;;;7.60;99.90;;;;;;4976157;28;20495;-94
2021/10/31 05:20:11;;;;;;;12.02;1.80;;;7.60;99.90;;;;;;4974553;28;20041;-94
2021/10/31 05:22:37;;;;;;;8.30;1.88;;;7.60;99.90;;;;;;4973958;28;20027;-94
2021/10/31 05:25:05;;;;;;;12.52;2.40;;;7.70;99.90;;;;;;4974723;28;20030;-93
2021/10/31 05:27:31;;;;;;;7.32;2.53;;;7.70;99.90;;;;;;4974628;28;20018;-94
2021/10/31 05:29:57;;;;;;;11.35;2.25;;;7.70;99.90;;;;;;4974993;28;20070;-94
2021/10/31 05:32:24;;;;;;;9.07;1.85;;;7.80;99.90;;;;;;4974587;28;20058;-92
2021/10/31 05:34:50;;;;;;;8.95;2.05;;;7.80;99.90;;;;;;4974920;28;20026;-93
2021/10/31 05:37:15;;;;;;;9.82;1.90;;;7.80;99.90;;;;;;4975283;28;20076;-93
2021/10/31 05:39:41;;;;;;;8.68;1.83;;;7.90;99.90;;;;;;4974390;28;20027;-93
2021/10/31 05:42:07;;;;;;;8.73;2.05;;;7.90;99.90;;;;;;4974305;28;20023;-92
2021/10/31 05:44:33;;;;;;;8.27;2.00;;;7.90;99.90;;;;;;4974332;28;20027;-94
2021/10/31 05:46:59;;;;;;;9.07;2.30;;;8.00;99.90;;;;;;4974994;28;20035;-94
2021/10/31 05:49:25;;;;;;;14.23;2.50;;;8.00;99.90;;;;;;4974468;28;20051;-93
2021/10/31 05:51:50;;;;;;;15.43;2.78;;;8.00;99.90;;;;;;4974556;28;20483;-93
2021/10/31 05:54:17;;;;;;;8.73;1.90;;;8.00;99.90;;;;;;4974012;28;20038;-92
2021/10/31 05:56:42;;;;;;;9.13;2.10;;;8.10;99.90;;;;;;4974166;28;20034;-94
2021/10/31 05:59:08;;;;;;;10.85;2.22;;;8.10;99.90;;;;;;4975383;28;20023;-94
2021/10/31 06:01:36;;;;;;;15.50;2.88;;;8.10;99.90;;;;;;4975537;28;20038;-93
2021/10/31 06:04:02;;;;;;;13.63;2.25;;;8.10;99.90;;;;;;4978912;28;20027;-94
2021/10/31 06:06:28;;;;;;;11.43;2.13;;;8.10;99.90;;;;;;4973491;28;20499;-95
2021/10/31 06:08:54;;;;;;;9.93;3.28;;;8.10;99.90;;;;;;4973262;28;20118;-93
2021/10/31 06:11:20;;;;;;;7.80;2.45;;;8.20;99.90;;;;;;4948788;28;20039;-94
2021/10/31 06:13:46;;;;;;;7.50;2.60;;;8.20;99.90;;;;;;4972966;28;20026;-92
2021/10/31 06:16:12;;;;;;;9.70;1.95;;;8.20;99.90;;;;;;4974763;28;20035;-94
2021/10/31 06:18:39;;;;;;;15.25;2.65;;;8.20;99.90;;;;;;4974433;28;20023;-93
2021/10/31 06:21:05;;;;;;;10.10;2.42;;;8.30;99.90;;;;;;4981390;28;20035;-93
2021/10/31 06:23:31;;;;;;;12.27;4.07;;;8.30;99.90;;;;;;4986524;28;20029;-95
2021/10/31 06:26:00;;;;;;;14.10;2.58;;;8.30;99.90;;;;;;4985838;28;20022;-94
2021/10/31 06:28:25;;;;;;;14.98;4.13;;;8.30;99.90;;;;;;4983777;28;20011;-95
2021/10/31 06:30:51;;;;;;;11.60;2.55;;;8.40;99.90;;;;;;4986546;28;20551;-96
2021/10/31 06:33:20;;;;;;;9.65;2.55;;;8.40;99.90;;;;;;4985609;28;20453;-94
2021/10/31 06:35:45;;;;;;;8.48;2.70;;;8.40;99.90;;;;;;4988143;28;20042;-95
2021/10/31 06:38:11;;;;;;;10.05;2.60;;;8.50;99.90;;;;;;4990997;28;20043;-95
2021/10/31 06:40:38;;;;;;;12.38;2.30;;;8.50;99.90;;;;;;4992469;28;20042;-92
2021/10/31 06:43:04;;;;;;;9.77;2.60;;;8.60;99.90;;;;;;4997526;28;20026;-92
2021/10/31 06:45:32;;;;;;;7.80;2.75;;;8.60;99.90;;;;;;4993107;28;20035;-93
2021/10/31 06:47:57;;;;;;;7.70;2.15;;;8.70;99.90;;;;;;4996902;28;20023;-92
2021/10/31 06:50:28;;;;;;;10.00;2.30;;;8.70;99.90;;;;;;4997827;28;20029;-94
2021/10/31 06:52:53;;;;;;;9.55;2.00;;;8.70;99.90;;;;;;4995421;28;20018;-95
2021/10/31 06:55:20;;;;;;;9.82;2.60;;;8.70;99.90;;;;;;4996920;28;20085;-95
2021/10/31 06:57:46;;;;;;;10.40;2.10;;;8.80;99.90;;;;;;4997478;28;20011;-94
2021/10/31 07:00:12;;;;;;;6.32;1.67;;;8.80;99.90;;;;;;4997933;28;20073;-92
2021/10/31 07:02:38;;;;;;;8.50;1.70;;;8.80;99.90;;;;;;4983698;28;20070;-93
2021/10/31 07:05:04;;;;;;;7.60;2.08;;;8.80;99.90;;;;;;5000639;28;20031;-91
2021/10/31 07:07:30;;;;;;;8.23;2.38;;;8.90;99.90;;;;;;4998769;28;20011;-92
2021/10/31 07:09:56;;;;;;;10.10;1.67;;;8.90;99.90;;;;;;4982672;28;20022;-93
2021/10/31 07:12:23;;;;;;;8.30;1.85;;;9.00;99.90;;;;;;4999905;28;20030;-93
2021/10/31 07:14:51;;;;;;;6.40;1.60;;;9.00;99.90;;;;;;5000837;28;20031;-94
2021/10/31 07:17:17;;;;;;;8.45;1.58;;;9.00;99.90;;;;;;5000160;28;20010;-93
2021/10/31 07:19:43;;;;;;;6.88;1.38;;;9.10;99.90;;;;;;5000482;28;20023;-92
2021/10/31 07:22:09;;;;;;;9.85;1.73;;;9.10;99.90;;;;;;5000430;28;20019;-89
2021/10/31 07:24:36;;;;;;;5.68;1.20;;;9.20;99.90;;;;;;4996873;28;20015;-91
2021/10/31 07:27:05;;;;;;;5.97;1.20;;;9.20;99.90;;;;;;5009926;28;20039;-93
2021/10/31 07:29:30;;;;;;;5.50;1.38;;;9.20;99.90;;;;;;5002612;28;20054;-93
2021/10/31 07:31:59;;;;;;;7.22;1.40;;;9.30;99.90;;;;;;4997021;28;20022;-94
2021/10/31 07:34:26;;;;;;;7.18;1.00;;;9.30;99.90;;;;;;4999749;28;20030;-95
2021/10/31 07:36:53;;;;;;;5.38;1.50;;;9.30;99.90;;;;;;4998094;28;20025;-93
2021/10/31 07:39:19;;;;;;;9.50;1.20;;;9.30;99.90;;;;;;4997032;28;20069;-96
2021/10/31 07:41:45;;;;;;;7.03;1.50;;;9.40;99.90;;;;;;4999087;28;20023;-95
2021/10/31 07:44:11;;;;;;;4.93;1.33;;;9.40;99.90;;;;;;4998539;28;20062;-92
2021/10/31 07:46:36;;;;;;;7.60;1.30;;;9.40;99.90;;;;;;4999976;28;20026;-93
2021/10/31 07:49:03;;;;;;;7.13;1.10;;;9.40;99.90;;;;;;4998477;28;20027;-95
2021/10/31 07:51:29;;;;;;;8.85;1.20;;;9.50;99.90;;;;;;4996312;28;20027;-94
2021/10/31 07:53:58;;;;;;;6.07;0.90;;;9.50;99.90;;;;;;4995174;28;20006;-93
2021/10/31 07:56:26;;;;;;;7.57;1.00;;;9.50;99.90;;;;;;4995616;28;20003;-95
2021/10/31 07:58:55;;;;;;;10.23;1.55;;;9.50;99.90;;;;;;4994319;28;20023;-94
2021/10/31 08:01:27;;;;;;;4.15;1.20;;;9.60;99.90;;;;;;4996534;28;20023;-95
2021/10/31 08:03:53;;;;;;;9.70;1.30;;;9.60;99.90;;;;;;4998225;28;20007;-95
2021/10/31 08:06:29;;;;;;;5.45;1.30;;;9.60;99.90;;;;;;4997950;28;20065;-93
2021/10/31 08:08:57;;;;;;;3.15;1.15;;;9.60;99.90;;;;;;5004961;28;20030;-95
2021/10/31 08:11:23;;;;;;;4.18;1.08;;;9.60;99.90;;;;;;4996449;28;20014;-94
2021/10/31 08:13:49;;;;;;;1.83;1.00;;;9.60;99.90;;;;;;4996737;28;20023;-92
2021/10/31 08:16:15;;;;;;;3.05;1.05;;;9.60;99.90;;;;;;4996904;28;20019;-95
2021/10/31 08:18:42;;;;;;;3.60;1.05;;;9.60;99.90;;;;;;4996528;28;20034;-96
2021/10/31 08:21:16;;;;;;;4.70;0.90;;;9.60;99.90;;;;;;4994995;28;20042;-92
2021/10/31 08:23:43;;;;;;;2.53;0.73;;;9.50;99.90;;;;;;4996800;28;21189;-93
2021/10/31 08:43:19;;;;;;;3.67;1.30;;;9.50;99.90;;;;;;5294823;23;20127;-92
2021/10/31 08:45:46;;;;;;;3.45;0.90;;;9.50;99.90;;;;;;5001926;28;20011;-94
2021/10/31 08:48:14;;;;;;;6.10;1.00;;;9.50;99.90;;;;;;4992607;28;20035;-94
2021/10/31 08:50:40;;;;;;;0.88;0.52;;;9.50;99.90;;;;;;4986198;28;20027;-94
2021/10/31 08:53:08;;;;;;;3.90;0.73;;;9.50;99.90;;;;;;4984420;28;20030;-92
2021/10/31 08:55:39;;;;;;;2.72;0.80;;;9.50;99.90;;;;;;4982464;28;20025;-94
2021/10/31 08:58:10;;;;;;;2.58;0.90;;;9.50;99.90;;;;;;4984504;28;20054;-96
2021/10/31 09:00:40;;;;;;;0.77;0.70;;;9.50;99.90;;;;;;4984337;28;20129;-93
2021/10/31 09:03:07;;;;;;;1.92;0.60;;;9.50;99.90;;;;;;4988061;28;20054;-95
2021/10/31 09:05:34;;;;;;;3.03;0.52;;;9.60;99.90;;;;;;4986812;28;20120;-95
2021/10/31 09:08:03;;;;;;;2.95;1.50;;;9.60;99.90;;;;;;4986647;28;20123;-94
2021/10/31 09:10:30;;;;;;;1.77;0.77;;;9.60;99.90;;;;;;4987651;28;20030;-95
2021/10/31 09:12:58;;;;;;;4.72;0.57;;;9.70;99.90;;;;;;4990813;28;20039;-95
2021/10/31 09:15:34;;;;;;;1.77;0.43;;;9.70;99.90;;;;;;4991651;28;20015;-94
2021/10/31 09:18:04;;;;;;;1.60;0.40;;;9.70;99.90;;;;;;4988381;28;20030;-94
2021/10/31 09:20:31;;;;;;;3.25;0.75;;;9.70;99.90;;;;;;4981293;28;20059;-94
2021/10/31 09:23:01;;;;;;;4.22;0.60;;;9.80;99.90;;;;;;4967298;29;20011;-95
2021/10/31 09:25:33;;;;;;;1.23;0.57;;;9.80;99.90;;;;;;4967698;29;20043;-94
2021/10/31 09:28:01;;;;;;;2.03;0.30;;;9.80;99.90;;;;;;4972404;28;20138;-94
2021/10/31 09:30:38;;;;;;;1.38;0.45;;;9.90;99.90;;;;;;4992091;28;20035;-95
2021/10/31 09:33:10;;;;;;;1.90;0.30;;;9.90;99.90;;;;;;4992391;28;20023;-93
2021/10/31 09:35:46;;;;;;;2.05;0.40;;;10.00;99.90;;;;;;4990831;28;20031;-93
2021/10/31 09:38:14;;;;;;;1.88;0.40;;;10.00;99.90;;;;;;4991142;28;20039;-93
2021/10/31 09:40:40;;;;;;;1.55;0.40;;;10.00;99.90;;;;;;4993904;28;20039;-95
2021/10/31 09:43:06;;;;;;;2.95;0.40;;;10.00;99.90;;;;;;4994704;28;20058;-93
2021/10/31 09:45:39;;;;;;;2.80;0.40;;;10.00;99.90;;;;;;4991784;28;20041;-94
2021/10/31 09:48:08;;;;;;;2.30;0.60;;;10.00;99.90;;;;;;4990514;28;20128;-92
2021/10/31 09:50:48;;;;;;;2.72;0.50;;;10.00;99.90;;;;;;4983038;28;20027;-95
2021/10/31 09:53:19;;;;;;;1.10;0.40;;;10.10;99.90;;;;;;4981182;28;20073;-95
2021/10/31 09:55:47;;;;;;;2.83;0.45;;;10.10;99.90;;;;;;4979122;28;20093;-95
2021/10/31 10:01:49;;;;;;;0.98;0.60;;;10.10;99.90;;;;;;4939564;29;20047;-94
2021/10/31 10:04:29;;;;;;;3.60;0.68;;;10.10;99.90;;;;;;4942268;29;20028;-95
2021/10/31 10:06:58;;;;;;;2.17;0.73;;;10.10;99.90;;;;;;4948800;28;20043;-92
2021/10/31 10:09:26;;;;;;;2.15;0.50;;;10.10;99.90;;;;;;4956560;28;20031;-94
2021/10/31 10:11:53;;;;;;;2.53;0.52;;;10.10;99.90;;;;;;4948836;29;20410;-93
2021/10/31 10:14:24;;;;;;;0.52;0.40;;;10.10;99.90;;;;;;4932896;29;20092;-91
2021/10/31 10:17:14;;;;;;;0.20;0.10;;;10.10;99.90;;;;;;4950870;29;20027;-92
2021/10/31 10:19:52;;;;;;;0.20;0.20;;;10.00;99.90;;;;;;4928890;29;20051;-92
2021/10/31 10:22:22;;;;;;;0.22;0.10;;;9.80;99.90;;;;;;4916737;29;20097;-95
2021/10/31 10:25:00;;;;;;;0.47;0.10;;;9.70;99.90;;;;;;4913141;29;20055;-94
2021/10/31 10:27:30;;;;;;;1.13;0.20;;;9.60;99.90;;;;;;4914247;29;20039;-93
2021/10/31 10:29:57;;;;;;;0.38;0.13;;;9.50;99.90;;;;;;4915742;29;20076;-93
2021/10/31 10:32:26;;;;;;;0.45;0.20;;;9.40;99.90;;;;;;4916374;29;20056;-94
2021/10/31 10:34:55;;;;;;;0.57;0.10;;;9.30;99.90;;;;;;4934274;29;20143;-93
2021/10/31 10:37:28;;;;;;;0.45;0.10;;;9.30;99.90;;;;;;4958063;28;20034;-91
2021/10/31 10:40:17;;;;;;;0.60;0.10;;;9.20;99.90;;;;;;4994128;28;20188;-91
2021/10/31 10:42:58;;;;;;;0.77;0.30;;;9.20;99.90;;;;;;4988619;28;20047;-94
2021/10/31 10:45:28;;;;;;;0.65;0.20;;;9.20;99.90;;;;;;4991790;28;20034;-93
2021/10/31 10:47:59;;;;;;;0.30;0.20;;;9.20;99.90;;;;;;4996270;28;20024;-92
2021/10/31 10:50:34;;;;;;;0.73;0.55;;;9.20;99.90;;;;;;4991506;28;20033;-94
2021/10/31 10:53:07;;;;;;;0.77;0.10;;;9.10;99.90;;;;;;4990663;28;20493;-94
2021/10/31 10:55:37;;;;;;;0.73;0.40;;;9.10;99.90;;;;;;4993939;28;20107;-90
2021/10/31 10:58:13;;;;;;;0.75;0.50;;;9.00;99.90;;;;;;4993272;28;20106;-92
2021/10/31 11:00:46;;;;;;;1.60;0.32;;;9.10;99.90;;;;;;4967174;28;20031;-94
2021/10/31 11:03:20;;;;;;;1.55;0.38;;;9.10;99.90;;;;;;4996487;28;20118;-92
2021/10/31 11:05:48;;;;;;;0.50;0.20;;;9.10;99.90;;;;;;4992907;28;20041;-91
2021/10/31 11:08:20;;;;;;;1.88;0.30;;;9.10;99.90;;;;;;4995481;28;20023;-92
2021/10/31 11:11:02;;;;;;;0.50;0.40;;;9.10;99.90;;;;;;4994354;28;20082;-93
2021/10/31 11:13:31;;;;;;;3.22;1.98;;;9.10;99.90;;;;;;4990732;28;20027;-95
2021/10/31 11:15:59;;;;;;;12.82;6.70;;;9.20;99.90;;;;;;4988481;28;20035;-93
2021/10/31 11:18:25;;;;;;;8.10;5.18;;;9.20;99.90;;;;;;4985912;28;20034;-94
2021/10/31 11:20:51;;;;;;;4.60;2.58;;;9.30;99.90;;;;;;4971244;28;20058;-95
2021/10/31 11:23:23;;;;;;;1.23;0.90;;;9.40;99.90;;;;;;4985794;28;20042;-95
2021/10/31 11:25:51;;;;;;;11.82;6.07;;;9.60;99.90;;;;;;4968299;28;20091;-94
2021/10/31 11:28:19;;;;;;;14.10;4.72;;;9.90;99.90;;;;;;4990532;28;20488;-92
2021/10/31 11:30:49;;;;;;;9.60;5.05;;;10.30;99.90;;;;;;4986094;28;20062;-95
2021/10/31 11:33:23;;;;;;;4.72;2.40;;;10.70;99.90;;;;;;4968192;28;20023;-95
2021/10/31 11:35:54;;;;;;;5.18;2.05;;;11.20;99.90;;;;;;4988548;28;20039;-95
2021/10/31 11:38:32;;;;;;;6.35;2.42;;;11.80;99.90;;;;;;4990490;28;20030;-95
2021/10/31 11:41:08;;;;;;;11.40;3.83;;;12.40;99.90;;;;;;4995441;28;20023;-94
2021/10/31 11:43:37;;;;;;;7.95;2.50;;;12.90;99.90;;;;;;4996643;28;20055;-93
2021/10/31 11:46:04;;;;;;;9.73;2.85;;;13.30;99.90;;;;;;4994739;28;20034;-93
2021/10/31 11:48:34;;;;;;;11.05;3.63;;;13.80;99.90;;;;;;4997274;28;20090;-94
2021/10/31 11:51:11;;;;;;;4.13;1.60;;;14.10;99.90;;;;;;4998111;28;20027;-94
2021/10/31 11:53:42;;;;;;;7.68;2.53;;;14.30;99.90;;;;;;4998667;28;20096;-95
2021/10/31 11:56:26;;;;;;;7.55;2.33;;;14.60;99.90;;;;;;4999693;28;20011;-94
2021/10/31 11:59:14;;;;;;;2.05;0.52;;;14.80;99.90;;;;;;4995555;28;20030;-94
2021/10/31 12:01:59;;;;;;;2.47;0.63;;;14.90;99.90;;;;;;4984289;28;20050;-96
2021/10/31 12:04:58;;;;;;;3.65;0.73;;;15.00;99.90;;;;;;5000391;28;20019;-94
2021/10/31 12:07:39;;;;;;;3.03;1.23;;;15.00;99.90;;;;;;5000137;28;20078;-91
2021/10/31 12:10:32;;;;;;;6.35;0.93;;;14.80;99.90;;;;;;5000580;28;20046;-91
2021/10/31 12:13:18;;;;;;;3.30;0.80;;;14.50;99.90;;;;;;5000326;28;20038;-93
2021/10/31 12:16:10;;;;;;;1.23;0.70;;;14.20;99.90;;;;;;4998010;28;20042;-96
2021/10/31 12:18:45;;;;;;;4.05;1.20;;;13.80;99.90;;;;;;4997117;28;20031;-96
2021/10/31 12:21:35;;;;;;;4.70;1.30;;;13.40;99.90;;;;;;4998349;28;20037;-93
2021/10/31 12:24:10;;;;;;;1.42;0.68;;;13.00;99.90;;;;;;4988078;28;20042;-94
2021/10/31 12:26:40;;;;;;;5.88;1.33;;;12.70;99.90;;;;;;4995946;28;20030;-95
2021/10/31 12:29:14;;;;;;;2.53;0.83;;;12.50;99.90;;;;;;4993089;28;20011;-94
2021/10/31 12:32:04;;;;;;;7.05;0.90;;;12.40;99.90;;;;;;4988688;28;20039;-94
2021/10/31 12:34:44;;;;;;;5.15;0.90;;;12.40;99.90;;;;;;4987746;28;20066;-95
2021/10/31 12:37:21;;;;;;;12.43;2.60;;;12.50;99.90;;;;;;4964342;28;20100;-94
2021/10/31 12:39:48;;;;;;;6.00;1.15;;;12.50;99.90;;;;;;4960684;28;20291;-95
2021/10/31 12:42:30;;;;;;;7.63;0.82;;;12.40;99.90;;;;;;4961301;28;20054;-94
2021/10/31 12:45:04;;;;;;;5.25;1.15;;;12.30;99.90;;;;;;4962403;28;20071;-95
2021/10/31 12:47:42;;;;;;;9.25;1.02;;;12.10;99.90;;;;;;4966902;28;20027;-93
2021/10/31 12:50:21;;;;;;;4.30;0.60;;;12.00;99.90;;;;;;4972578;28;20027;-94
2021/10/31 12:53:01;;;;;;;6.30;0.82;;;11.90;99.90;;;;;;4983714;28;20051;-95
2021/10/31 12:55:28;;;;;;;3.03;0.82;;;11.70;99.90;;;;;;4981275;28;20035;-95
2021/10/31 12:58:21;;;;;;;5.22;1.10;;;11.50;99.90;;;;;;4989350;28;20037;-95
2021/10/31 13:00:52;;;;;;;5.68;0.82;;;11.30;99.90;;;;;;4985634;28;20095;-95
2021/10/31 13:03:20;;;;;;;;;;;11.20;99.90;;;;;;4981150;28;20042;-96
2021/10/31 13:05:48;;;;;;;2.53;0.30;;;11.10;99.90;;;;;;4975696;28;19933;-95
2021/10/31 13:08:18;;;;;;;5.15;1.15;;;10.90;99.90;;;;;;4974699;28;20019;-96
2021/10/31 13:10:55;;;;;;;1.70;0.50;;;10.70;99.90;;;;;;4970587;28;20055;-96
2021/10/31 13:13:49;;;;;;;0.85;0.30;;;10.50;99.90;;;;;;4987417;28;20007;-95
2021/10/31 13:16:22;;;;;;;2.65;0.73;;;10.40;99.90;;;;;;4969134;28;20038;-93
2021/10/31 13:18:47;;;;;;;2.92;1.10;;;10.40;99.90;;;;;;4982191;28;20041;-95
2021/10/31 13:21:20;;;;;;;3.63;0.90;;;10.70;99.90;;;;;;4971809;28;20039;-95
2021/10/31 13:23:47;;;;;;;3.35;0.90;;;11.10;99.90;;;;;;4979011;28;20030;-95
2021/10/31 13:26:16;;;;;;;3.83;1.00;;;11.60;99.90;;;;;;4973631;28;20030;-94